Time;durP1;ratioP1;P1;durP2;ratioP2;P2;SDS_P1;SDS_P2;PMS_P1;PMS_P2;Temp;Humidity;BMP_temperature;BMP_pressure;BME280_temperature;BME280_humidity;BME280_pressure;Samples;Min_cycle;Max_cycle;Signal;HPM_P1;HPM_P2
2021/09/22 00:01:12;;;;;;;9.23;7.40;;;;;;;10.66;71.72;101606.48;1740885;82;20900;-79
2021/09/22 00:03:38;;;;;;;8.60;7.70;;;;;;;10.64;71.79;101597.86;1722505;82;20955;-79
2021/09/22 00:06:04;;;;;;;7.85;7.15;;;;;;;10.64;71.86;101596.57;1732068;82;20899;-79
2021/09/22 00:08:31;;;;;;;10.35;7.95;;;;;;;10.63;71.92;101594.84;1736981;82;20951;-79
2021/09/22 00:10:57;;;;;;;10.50;7.78;;;;;;;10.64;71.97;101589.67;1739521;82;20922;-79
2021/09/22 00:13:23;;;;;;;9.33;8.13;;;;;;;10.64;72.03;101588.81;1742814;82;20943;-79
2021/09/22 00:15:56;;;;;;;9.53;6.92;;;;;;;10.64;72.05;101588.81;1740571;82;20872;-79
2021/09/22 00:18:22;;;;;;;9.58;7.90;;;;;;;10.64;72.08;101592.26;1742641;82;20940;-79
2021/09/22 00:20:48;;;;;;;9.03;8.13;;;;;;;10.65;72.13;101584.06;1742838;82;20967;-79
2021/09/22 00:23:19;;;;;;;9.88;7.50;;;;;;;10.64;72.17;101592.26;1742680;82;20888;-79
2021/09/22 00:25:45;;;;;;;7.35;6.60;;;;;;;10.64;72.20;101584.50;1761621;79;20927;-79
2021/09/22 00:28:11;;;;;;;9.58;7.80;;;;;;;10.65;72.29;101586.22;1785349;80;20899;-79
2021/09/22 00:30:40;;;;;;;10.35;7.45;;;;;;;10.66;72.30;101587.08;1785195;80;20899;-79
2021/09/22 00:33:07;;;;;;;8.40;7.42;;;;;;;10.66;72.34;101581.48;1785121;79;20939;-79
2021/09/22 00:35:35;;;;;;;13.60;8.35;;;;;;;10.66;72.38;101587.08;1790313;79;20933;-79
2021/09/22 00:38:01;;;;;;;9.95;7.58;;;;;;;10.66;72.43;101585.36;1817441;78;20917;-79
2021/09/22 00:40:28;;;;;;;9.20;8.30;;;;;;;10.67;72.46;101592.69;1795927;79;20911;-79
2021/09/22 00:42:54;;;;;;;10.68;7.67;;;;;;;10.65;72.47;101599.16;1756602;79;20891;-80
2021/09/22 00:45:27;;;;;;;9.30;8.33;;;;;;;10.63;72.49;101602.17;1783565;79;20900;-80
2021/09/22 00:47:53;;;;;;;9.05;8.13;;;;;;;10.62;72.58;101599.16;1785411;80;21422;-80
2021/09/22 00:50:23;;;;;;;10.98;8.13;;;;;;;10.62;72.63;101609.50;1785299;80;20864;-80
2021/09/22 00:52:50;;;;;;;8.90;7.97;;;;;;;10.60;72.66;101608.20;1785121;80;20895;-80
2021/09/22 00:55:16;;;;;;;12.10;7.97;;;;;;;10.61;72.77;101613.81;1783185;79;20891;-80
2021/09/22 00:57:51;;;;;;;13.05;8.08;;;;;;;10.61;72.79;101612.52;1785255;80;20907;-79
2021/09/22 01:00:21;;;;;;;9.95;7.78;;;;;;;10.61;72.80;101604.77;1785105;80;20931;-79
2021/09/22 01:02:48;;;;;;;8.93;8.03;;;;;;;10.60;72.80;101595.27;1783548;80;20939;-80
2021/09/22 01:05:22;;;;;;;14.03;9.40;;;;;;;10.61;72.87;101589.67;1783392;79;20903;-80
2021/09/22 01:07:49;;;;;;;9.50;8.50;;;;;;;10.60;72.91;101583.64;1754186;81;20950;-80
2021/09/22 01:10:17;;;;;;;9.20;8.25;;;;;;;10.60;72.94;101583.64;1754034;81;20955;-80
2021/09/22 01:12:44;;;;;;;9.35;8.45;;;;;;;10.57;72.97;101572.00;1780833;80;20907;-80
2021/09/22 01:15:31;;;;;;;10.72;9.20;;;;;;;10.55;73.00;101572.86;1782032;79;21454;-79
2021/09/22 01:17:58;;;;;;;15.15;8.43;;;;;;;10.53;73.07;101572.86;1770829;80;21101;-79
2021/09/22 01:20:28;;;;;;;9.33;7.37;;;;;;;10.52;73.13;101571.14;1784930;80;20867;-79
2021/09/22 01:22:56;;;;;;;12.23;7.47;;;;;;;10.52;73.16;101565.11;1785158;80;20931;-79
2021/09/22 01:25:26;;;;;;;9.18;7.85;;;;;;;10.51;73.18;101568.13;1785500;80;20911;-79
2021/09/22 01:27:58;;;;;;;9.75;8.25;;;;;;;10.49;73.21;101563.38;1797291;78;20917;-79
2021/09/22 01:30:25;;;;;;;10.65;8.05;;;;;;;10.49;73.27;101568.55;1801185;78;20903;-79
2021/09/22 01:33:02;;;;;;;8.75;7.83;;;;;;;10.48;73.30;101563.38;1788027;80;20934;-79
2021/09/22 01:35:37;;;;;;;13.20;8.33;;;;;;;10.49;73.37;101563.81;1788139;80;20863;-79
2021/09/22 01:38:06;;;;;;;9.93;8.05;;;;;;;10.50;73.40;101566.83;1783896;78;20857;-79
2021/09/22 01:40:35;;;;;;;9.85;7.78;;;;;;;10.50;73.45;101559.94;1779323;80;20876;-79
2021/09/22 01:43:05;;;;;;;9.83;8.10;;;;;;;10.51;73.45;101555.20;1761984;80;21400;-79
2021/09/22 01:45:32;;;;;;;9.58;8.15;;;;;;;10.51;73.52;101550.02;1787947;80;21807;-79
2021/09/22 01:47:59;;;;;;;8.90;7.37;;;;;;;10.53;73.55;101540.97;1786764;78;20946;-79
2021/09/22 01:50:26;;;;;;;11.85;7.90;;;;;;;10.52;73.57;101534.94;1788022;80;20899;-79
2021/09/22 01:52:54;;;;;;;10.53;7.72;;;;;;;10.53;73.61;101528.05;1788126;80;20895;-79
2021/09/22 01:55:23;;;;;;;12.13;7.55;;;;;;;10.53;73.65;101534.08;1788088;80;20868;-79
2021/09/22 01:57:50;;;;;;;8.98;7.55;;;;;;;10.52;73.64;101531.06;1788064;80;20899;-79
2021/09/22 02:00:16;;;;;;;;;;;;;;;10.50;73.67;101535.37;1786677;79;20943;-79
2021/09/22 02:02:43;;;;;;;8.53;7.20;;;;;;;10.49;74.00;101546.58;1782433;79;20082;-80
2021/09/22 02:05:10;;;;;;;9.45;7.17;;;;;;;10.46;73.78;101553.04;1782803;80;20864;-79
2021/09/22 02:07:37;;;;;;;12.23;7.80;;;;;;;10.46;73.81;101547.87;1787853;80;20859;-79
2021/09/22 02:10:09;;;;;;;11.70;7.37;;;;;;;10.47;73.86;101544.85;1783836;78;20940;-79
2021/09/22 02:12:35;;;;;;;;;;;;;;;10.48;73.91;101543.98;1822981;78;20889;-79
2021/09/22 02:15:03;;;;;;;8.93;7.08;;;;;;;10.48;74.23;101542.27;1820629;78;20129;-79
2021/09/22 02:17:44;;;;;;;10.28;8.03;;;;;;;10.47;73.97;101548.73;1787508;78;20887;-79
2021/09/22 02:20:11;;;;;;;10.32;8.23;;;;;;;10.47;74.01;101553.91;1778963;80;20906;-79
2021/09/22 02:22:38;;;;;;;8.88;7.95;;;;;;;10.47;73.99;101552.61;1787976;80;20939;-79
2021/09/22 02:25:10;;;;;;;13.55;8.33;;;;;;;10.46;74.05;101546.58;1787868;80;20903;-79
2021/09/22 02:27:40;;;;;;;8.60;7.80;;;;;;;10.48;74.09;101547.87;1784622;80;20907;-78
2021/09/22 02:30:12;;;;;;;10.48;8.15;;;;;;;10.48;74.13;101551.75;1755020;80;20934;-78
2021/09/22 02:32:42;;;;;;;9.58;8.08;;;;;;;10.49;74.18;101549.16;1787812;80;20895;-79
2021/09/22 02:35:13;;;;;;;11.75;9.03;;;;;;;10.51;74.22;101547.87;1784557;78;20931;-79
2021/09/22 02:37:40;;;;;;;9.78;8.68;;;;;;;10.51;74.23;101544.84;1777703;80;20951;-79
2021/09/22 02:40:12;;;;;;;11.90;8.08;;;;;;;10.51;74.27;101552.61;1788065;80;20911;-79
2021/09/22 02:42:57;;;;;;;7.90;7.10;;;;;;;10.53;74.32;101544.84;1786069;80;20938;-79
2021/09/22 02:45:38;;;;;;;9.40;8.45;;;;;;;10.52;74.31;101543.98;1793676;78;20881;-79
2021/09/22 02:48:04;;;;;;;9.35;8.35;;;;;;;10.52;74.35;101549.16;1820441;78;20878;-79
2021/09/22 02:50:31;;;;;;;8.95;7.90;;;;;;;10.52;74.41;101554.33;1820342;78;20901;-79
2021/09/22 02:53:12;;;;;;;10.00;8.35;;;;;;;10.53;74.44;101556.05;1787090;78;21423;-79
2021/09/22 02:55:39;;;;;;;9.05;8.15;;;;;;;10.52;74.43;101558.64;1731534;81;20943;-79
2021/09/22 02:58:05;;;;;;;10.98;7.83;;;;;;;10.51;74.49;101561.66;1747826;80;20922;-79
2021/09/22 03:00:33;;;;;;;8.13;7.37;;;;;;;10.51;74.51;101572.00;1738935;81;21291;-79
2021/09/22 03:02:59;;;;;;;9.05;8.13;;;;;;;10.52;74.54;101569.84;1750448;81;21019;-79
2021/09/22 03:05:29;;;;;;;13.13;7.95;;;;;;;10.51;74.62;101573.73;1739680;81;21095;-79
2021/09/22 03:07:58;;;;;;;8.58;7.75;;;;;;;10.54;74.66;101577.17;1761342;80;21039;-79
2021/09/22 03:10:24;;;;;;;8.88;8.05;;;;;;;10.55;74.64;101579.33;1752301;81;21035;-79
2021/09/22 03:12:52;;;;;;;10.63;8.50;;;;;;;10.53;74.69;101579.33;1752624;81;21003;-79
2021/09/22 03:15:19;;;;;;;14.80;10.70;;;;;;;10.55;74.76;101586.66;1751553;81;21432;-79
2021/09/22 03:17:46;;;;;;;12.80;9.50;;;;;;;10.57;74.78;101589.24;1748232;80;21053;-79
2021/09/22 03:20:12;;;;;;;16.80;10.03;;;;;;;10.60;74.79;101592.69;1748103;81;20912;-79
2021/09/22 03:22:40;;;;;;;16.05;12.63;;;;;;;10.59;74.76;101592.69;1754297;81;20897;-79
2021/09/22 03:25:09;;;;;;;15.50;11.40;;;;;;;10.59;74.83;101590.10;1754884;81;20920;-79
2021/09/22 03:27:35;;;;;;;13.20;9.60;;;;;;;10.59;74.89;101588.38;1753934;81;20866;-79
2021/09/22 03:30:10;;;;;;;10.10;9.10;;;;;;;10.61;74.91;101594.84;1754419;81;20940;-79
2021/09/22 03:32:42;;;;;;;11.38;9.03;;;;;;;10.60;74.90;101592.69;1751728;81;20897;-79
2021/09/22 03:35:09;;;;;;;11.30;8.63;;;;;;;10.58;74.87;101602.61;1700731;83;21533;-79
2021/09/22 03:37:38;;;;;;;10.60;8.70;;;;;;;10.57;74.95;101602.17;1707766;84;20877;-79
2021/09/22 03:40:06;;;;;;;9.73;8.73;;;;;;;10.56;74.98;101607.78;1707627;84;20945;-79
2021/09/22 03:42:32;;;;;;;9.28;8.30;;;;;;;10.55;75.05;101611.22;1705810;82;20886;-79
2021/09/22 03:45:06;;;;;;;10.18;9.15;;;;;;;10.55;75.05;101609.07;1692965;84;20870;-79
2021/09/22 03:47:32;;;;;;;9.73;8.60;;;;;;;10.54;75.07;101609.50;1708333;82;20963;-79
2021/09/22 03:49:59;;;;;;;10.53;8.98;;;;;;;10.53;75.11;101613.37;1708456;83;20918;-79
2021/09/22 03:52:25;;;;;;;22.70;15.53;;;;;;;10.51;75.12;101618.55;1708297;83;20939;-79
2021/09/22 03:54:51;;;;;;;18.60;12.70;;;;;;;10.51;75.18;101620.27;1707408;82;20918;-79
2021/09/22 03:57:18;;;;;;;13.88;10.65;;;;;;;10.50;75.18;101624.58;1695344;84;20909;-79
2021/09/22 03:59:44;;;;;;;12.28;9.05;;;;;;;10.51;75.24;101618.98;1678630;83;20942;-79
2021/09/22 04:02:13;;;;;;;13.43;8.93;;;;;;;10.49;75.25;101624.58;1696700;83;20918;-79
2021/09/22 04:04:42;;;;;;;8.93;7.58;;;;;;;10.49;75.26;101629.33;1697238;83;20997;-79
2021/09/22 04:07:09;;;;;;;;;;;;;;;10.46;75.23;101620.27;1694379;82;20932;-79
2021/09/22 04:09:35;;;;;;;15.32;11.80;;;;;;;10.45;75.58;101626.73;1699510;84;20729;-79
2021/09/22 04:12:01;;;;;;;12.23;8.70;;;;;;;10.43;75.40;101627.16;1700662;84;21457;-79
2021/09/22 04:14:28;;;;;;;11.05;8.83;;;;;;;10.44;75.41;101626.30;1680516;83;20921;-79
2021/09/22 04:16:54;;;;;;;10.08;8.38;;;;;;;10.43;75.39;101623.28;1688773;84;21423;-79
2021/09/22 04:19:27;;;;;;;9.03;7.67;;;;;;;10.39;75.39;101623.75;1691507;82;20890;-78
2021/09/22 04:21:53;;;;;;;11.30;8.50;;;;;;;10.40;75.47;101625.90;1696746;84;20878;-78
2021/09/22 04:24:19;;;;;;;9.78;8.53;;;;;;;10.39;75.49;101625.03;1700350;84;20906;-80
2021/09/22 04:26:53;;;;;;;9.13;8.05;;;;;;;10.38;75.48;101623.74;1670250;83;20945;-79
2021/09/22 04:29:20;;;;;;;8.85;7.97;;;;;;;10.35;75.45;101627.19;1666818;86;20940;-78
2021/09/22 04:31:46;;;;;;;13.28;7.47;;;;;;;10.33;75.52;101625.03;1681276;84;20875;-78
2021/09/22 04:34:20;;;;;;;8.33;7.40;;;;;;;10.33;75.54;101625.03;1670402;85;20952;-78
2021/09/22 04:36:46;;;;;;;11.15;8.53;;;;;;;10.30;75.54;101626.31;1687281;84;20943;-79
2021/09/22 04:39:13;;;;;;;10.00;7.65;;;;;;;10.28;75.55;101635.36;1699276;83;20927;-79
2021/09/22 04:41:48;;;;;;;17.52;7.80;;;;;;;10.25;75.54;101626.74;1671063;83;20925;-79
2021/09/22 04:44:14;;;;;;;8.45;7.65;;;;;;;10.22;75.58;101634.48;1682633;83;21443;-78
2021/09/22 04:46:41;;;;;;;8.38;7.03;;;;;;;10.18;75.54;101641.77;1671917;84;20942;-78
2021/09/22 04:49:08;;;;;;;8.75;7.85;;;;;;;10.12;75.54;101641.75;1673289;85;20909;-78
2021/09/22 04:51:35;;;;;;;9.33;7.65;;;;;;;10.07;75.57;101644.76;1658244;83;21489;-78
2021/09/22 04:54:01;;;;;;;8.68;7.67;;;;;;;10.03;75.64;101646.47;1679257;85;20889;-78
2021/09/22 04:56:35;;;;;;;8.38;7.45;;;;;;;10.02;75.72;101648.62;1664291;83;20940;-78
2021/09/22 04:59:01;;;;;;;9.15;7.55;;;;;;;10.03;75.80;101648.19;1669397;84;20913;-78
2021/09/22 05:01:28;;;;;;;8.98;7.75;;;;;;;10.04;75.82;101657.67;1672395;84;20955;-78
2021/09/22 05:03:57;;;;;;;9.38;8.30;;;;;;;10.05;75.86;101649.05;1670383;83;20879;-77
2021/09/22 05:06:24;;;;;;;11.65;8.25;;;;;;;10.05;75.88;101647.77;1666080;84;20976;-77
2021/09/22 05:08:50;;;;;;;10.35;7.67;;;;;;;10.05;75.92;101648.62;1669325;83;20893;-78
2021/09/22 05:11:24;;;;;;;10.50;7.97;;;;;;;10.06;75.92;101644.32;1673690;82;20897;-78
2021/09/22 05:13:50;;;;;;;7.65;6.95;;;;;;;10.09;75.95;101649.50;1648945;85;20914;-78
2021/09/22 05:16:17;;;;;;;8.95;7.35;;;;;;;10.10;75.98;101643.47;1661541;84;20939;-78
2021/09/22 05:18:43;;;;;;;9.08;8.28;;;;;;;10.14;76.02;101646.06;1659014;86;20921;-78
2021/09/22 05:21:09;;;;;;;8.70;7.83;;;;;;;10.18;76.08;101647.80;1677438;84;20915;-78
2021/09/22 05:23:54;;;;;;;9.83;7.45;;;;;;;10.20;76.03;101653.87;1669197;85;21030;-78
2021/09/22 05:26:20;;;;;;;8.25;7.45;;;;;;;10.22;76.04;101654.73;1667670;84;20893;-78
2021/09/22 05:28:47;;;;;;;8.48;7.58;;;;;;;10.24;76.09;101667.66;1697511;84;20934;-78
2021/09/22 05:31:19;;;;;;;9.33;8.28;;;;;;;10.25;76.14;101665.09;1695742;83;20923;-78
2021/09/22 05:33:45;;;;;;;11.60;9.05;;;;;;;10.29;76.13;101678.88;1687844;83;20947;-78
2021/09/22 05:36:12;;;;;;;13.88;8.85;;;;;;;10.32;76.21;101691.81;1688832;82;20922;-78
2021/09/22 05:38:46;;;;;;;15.55;10.45;;;;;;;10.35;76.22;101690.95;1709815;81;20899;-78
2021/09/22 05:41:12;;;;;;;18.42;11.80;;;;;;;10.36;76.18;101693.97;1695369;84;20894;-78
2021/09/22 05:43:39;;;;;;;18.77;13.83;;;;;;;10.37;76.20;101695.27;1700168;83;20929;-78
2021/09/22 05:46:07;;;;;;;23.32;12.53;;;;;;;10.39;76.25;101700.02;1698745;83;20910;-78
2021/09/22 05:48:34;;;;;;;16.05;10.75;;;;;;;10.39;76.20;101699.16;1700285;83;20953;-78
2021/09/22 05:51:00;;;;;;;18.87;12.13;;;;;;;10.40;76.26;101706.05;1696093;83;20926;-78
2021/09/22 05:53:27;;;;;;;26.90;11.88;;;;;;;10.38;76.27;101712.52;1672759;84;20907;-78
2021/09/22 05:55:53;;;;;;;17.50;11.43;;;;;;;10.37;76.26;101710.78;1681475;82;20937;-78
2021/09/22 05:58:20;;;;;;;21.07;12.70;;;;;;;10.36;76.35;101715.95;1702032;83;20941;-78
2021/09/22 06:01:04;;;;;;;31.93;12.50;;;;;;;10.36;76.38;101719.41;1698383;82;20906;-78
2021/09/22 06:03:30;;;;;;;19.10;10.00;;;;;;;10.37;76.43;101725.44;1680366;81;20957;-79
2021/09/22 06:05:57;;;;;;;22.82;10.82;;;;;;;10.34;76.38;101725.00;1697104;81;20942;-79
2021/09/22 06:08:23;;;;;;;14.68;12.03;;;;;;;10.33;76.38;101727.58;1696017;81;21559;-79
2021/09/22 06:10:49;;;;;;;17.20;12.68;;;;;;;10.34;76.45;101726.72;1677989;83;20882;-79
2021/09/22 06:13:20;;;;;;;16.70;12.03;;;;;;;10.32;76.46;101724.56;1697157;83;20917;-79
2021/09/22 06:15:46;;;;;;;16.20;12.85;;;;;;;10.34;76.57;101728.02;1693916;82;21867;-79
2021/09/22 06:18:12;;;;;;;19.20;14.58;;;;;;;10.37;76.64;101727.59;1697123;83;21359;-79
2021/09/22 06:20:39;;;;;;;13.65;12.25;;;;;;;10.41;76.65;101729.30;1693928;83;21580;-78
2021/09/22 06:23:05;;;;;;;17.45;12.47;;;;;;;10.46;76.68;101731.89;1691021;83;20907;-78
2021/09/22 06:25:31;;;;;;;13.95;11.40;;;;;;;10.53;76.75;101729.75;1693353;82;20914;-79
2021/09/22 06:27:59;;;;;;;13.78;11.33;;;;;;;10.58;76.75;101726.75;1696094;83;20946;-79
2021/09/22 06:30:26;;;;;;;13.72;10.93;;;;;;;10.64;76.76;101726.76;1697210;83;20933;-79
2021/09/22 06:32:52;;;;;;;13.38;11.35;;;;;;;10.68;76.74;101727.63;1700667;82;20917;-79
2021/09/22 06:35:19;;;;;;;12.98;11.10;;;;;;;10.71;76.75;101734.96;1697714;82;20890;-78
2021/09/22 06:37:48;;;;;;;14.30;11.30;;;;;;;10.74;76.75;101735.40;1699527;82;20945;-78
2021/09/22 06:40:14;;;;;;;16.75;13.45;;;;;;;10.78;76.77;101747.48;1690654;82;20956;-78
2021/09/22 06:42:40;;;;;;;13.25;11.80;;;;;;;10.82;76.78;101750.50;1699554;83;20889;-78
2021/09/22 06:45:07;;;;;;;19.65;12.35;;;;;;;10.85;76.76;101752.66;1688642;83;20868;-78
2021/09/22 06:47:34;;;;;;;18.05;12.73;;;;;;;10.89;76.79;101749.22;1689967;83;20962;-78
2021/09/22 06:50:04;;;;;;;17.15;12.65;;;;;;;10.93;76.82;101756.52;1694607;82;20918;-78
2021/09/22 06:52:30;;;;;;;17.50;13.08;;;;;;;10.95;76.79;101757.38;1701072;83;20925;-79
2021/09/22 06:54:58;;;;;;;16.12;13.90;;;;;;;10.96;76.83;101761.70;1695970;83;20909;-79
2021/09/22 06:57:27;;;;;;;16.45;13.50;;;;;;;10.95;76.77;101758.24;1697410;82;20984;-79
2021/09/22 06:59:53;;;;;;;16.30;13.85;;;;;;;10.93;76.81;101759.97;1698476;82;20941;-79
2021/09/22 07:02:20;;;;;;;19.10;14.20;;;;;;;10.93;76.85;101763.85;1692970;83;20949;-79
2021/09/22 07:04:47;;;;;;;18.32;14.47;;;;;;;10.91;76.85;101760.43;1703083;82;20910;-78
2021/09/22 07:07:13;;;;;;;18.65;15.45;;;;;;;10.89;76.89;101769.91;1692977;82;20870;-78
2021/09/22 07:09:40;;;;;;;15.80;13.93;;;;;;;10.90;76.97;101771.64;1688855;82;20976;-78
2021/09/22 07:12:06;;;;;;;15.55;13.40;;;;;;;10.91;77.00;101770.78;1688155;82;20925;-79
2021/09/22 07:14:33;;;;;;;19.87;14.95;;;;;;;10.91;77.01;101766.90;1701648;83;20913;-79
2021/09/22 07:16:59;;;;;;;21.75;15.72;;;;;;;10.92;77.05;101767.73;1699339;82;20913;-78
2021/09/22 07:19:26;;;;;;;20.85;15.03;;;;;;;10.94;77.06;101766.88;1700235;82;21601;-78
2021/09/22 07:21:52;;;;;;;28.45;16.45;;;;;;;10.96;77.08;101770.75;1688442;82;20943;-78
2021/09/22 07:24:18;;;;;;;21.10;15.43;;;;;;;11.00;77.12;101778.09;1695554;82;20972;-78
2021/09/22 07:26:45;;;;;;;16.55;12.75;;;;;;;11.01;77.07;101778.09;1703340;82;20897;-78
2021/09/22 07:29:13;;;;;;;14.98;12.28;;;;;;;11.01;77.14;101780.68;1699538;83;20914;-78
2021/09/22 07:31:39;;;;;;;17.75;13.38;;;;;;;11.02;77.09;101785.00;1702520;81;20901;-78
2021/09/22 07:34:06;;;;;;;13.65;11.80;;;;;;;11.01;77.06;101791.03;1692289;82;20907;-78
2021/09/22 07:36:34;;;;;;;13.45;12.05;;;;;;;11.00;77.05;101794.91;1705517;82;20918;-78
2021/09/22 07:39:00;;;;;;;17.07;12.30;;;;;;;10.99;77.11;101802.24;1694555;82;20939;-79
2021/09/22 07:41:27;;;;;;;15.68;12.45;;;;;;;10.98;77.11;101795.34;1697538;82;21367;-78
2021/09/22 07:43:53;;;;;;;15.03;11.20;;;;;;;10.98;77.11;101794.91;1694044;81;21388;-78
2021/09/22 07:46:19;;;;;;;14.05;11.10;;;;;;;10.98;77.18;101805.27;1697497;81;20909;-78
2021/09/22 07:48:48;;;;;;;13.25;11.75;;;;;;;11.00;77.20;101810.45;1692419;82;20902;-78
2021/09/22 07:51:14;;;;;;;14.55;11.93;;;;;;;11.01;77.24;101812.17;1709815;82;20927;-78
2021/09/22 07:53:40;;;;;;;15.08;12.03;;;;;;;11.00;77.20;101813.89;1691522;82;21462;-78
2021/09/22 07:56:09;;;;;;;14.93;12.53;;;;;;;11.03;77.27;101819.08;1691026;82;20909;-78
2021/09/22 07:58:35;;;;;;;15.93;11.80;;;;;;;11.06;77.27;101820.80;1697484;82;20918;-78
2021/09/22 08:01:01;;;;;;;14.78;11.88;;;;;;;11.06;77.29;101823.39;1694233;82;20933;-78
2021/09/22 08:03:27;;;;;;;13.10;11.43;;;;;;;11.08;77.33;101829.00;1698198;82;20946;-78
2021/09/22 08:05:54;;;;;;;13.68;11.08;;;;;;;11.12;77.34;101827.28;1694890;82;20876;-78
2021/09/22 08:08:20;;;;;;;14.05;10.50;;;;;;;11.15;77.37;101822.98;1698034;82;20900;-78
2021/09/22 08:10:47;;;;;;;14.10;10.82;;;;;;;11.22;77.42;101827.73;1694684;81;20914;-78
2021/09/22 08:13:13;;;;;;;15.20;10.55;;;;;;;11.30;77.46;101825.15;1698237;82;20953;-78
2021/09/22 08:15:40;;;;;;;11.40;10.25;;;;;;;11.35;77.44;101829.89;1696154;82;20935;-78
2021/09/22 08:18:06;;;;;;;12.55;10.82;;;;;;;11.42;77.43;101831.62;1697512;82;20928;-78
2021/09/22 08:20:33;;;;;;;11.65;10.00;;;;;;;11.41;77.43;101832.48;1697908;82;20930;-78
2021/09/22 08:22:59;;;;;;;10.82;9.75;;;;;;;11.50;77.41;101843.68;1686430;83;21458;-78
2021/09/22 08:25:25;;;;;;;11.28;10.10;;;;;;;11.52;77.33;101847.56;1684242;83;20896;-78
2021/09/22 08:27:54;;;;;;;11.60;9.78;;;;;;;11.53;77.26;101855.77;1705779;81;20898;-78
2021/09/22 08:30:21;;;;;;;11.12;10.03;;;;;;;11.54;77.34;101853.17;1676528;83;20862;-78
2021/09/22 08:32:47;;;;;;;11.50;10.30;;;;;;;11.59;77.36;101848.00;1694412;83;20909;-78
2021/09/22 08:35:14;;;;;;;16.12;10.72;;;;;;;11.65;77.43;101847.13;1685933;83;20918;-78
2021/09/22 08:37:41;;;;;;;13.30;9.70;;;;;;;11.71;77.45;101847.13;1684349;83;21003;-78
2021/09/22 08:40:09;;;;;;;12.35;10.78;;;;;;;11.79;77.51;101844.13;1695317;82;20904;-78
2021/09/22 08:42:37;;;;;;;11.33;9.85;;;;;;;11.88;77.48;101842.83;1688247;81;20937;-78
2021/09/22 08:45:04;;;;;;;;;;;;;;;11.98;77.50;101847.53;1686793;83;20938;-78
2021/09/22 08:47:31;;;;;;;11.33;9.40;;;;;;;12.13;77.61;101842.31;1678093;83;20422;-78
2021/09/22 08:49:57;;;;;;;13.05;9.50;;;;;;;12.20;77.49;101846.18;1702471;82;23836;-78
2021/09/22 08:52:23;;;;;;;12.20;10.13;;;;;;;12.32;77.55;101845.71;1690706;81;21456;-78
2021/09/22 08:54:50;;;;;;;10.98;9.88;;;;;;;12.35;77.34;101843.97;1689175;82;21837;-78
2021/09/22 08:57:17;;;;;;;10.90;9.60;;;;;;;12.38;77.30;101840.07;1689785;83;20910;-78
2021/09/22 08:59:43;;;;;;;11.10;10.00;;;;;;;12.38;77.25;101839.20;1695636;82;21366;-78
2021/09/22 09:02:15;;;;;;;13.32;10.10;;;;;;;12.41;77.32;101837.46;1697892;82;20965;-78
2021/09/22 09:04:45;;;;;;;11.35;9.95;;;;;;;12.50;77.45;101832.64;1679251;83;21506;-78
2021/09/22 09:07:12;;;;;;;11.85;9.75;;;;;;;12.66;77.54;101829.54;1706382;82;20954;-78
2021/09/22 09:09:42;;;;;;;;;;;;;;;12.79;77.50;101831.20;1701027;82;20935;-78
2021/09/22 09:12:21;;;;;;;10.88;9.68;;;;;;;12.90;77.43;101828.11;1706651;82;20585;-78
2021/09/22 09:14:56;;;;;;;10.78;9.68;;;;;;;12.98;77.34;101825.03;1700843;82;20886;-78
2021/09/22 09:17:49;;;;;;;8.88;7.97;;;;;;;13.05;77.24;101827.98;1691071;82;20870;-78
2021/09/22 09:20:21;;;;;;;10.15;9.20;;;;;;;13.09;77.13;101826.23;1746973;80;20889;-78
2021/09/22 09:23:07;;;;;;;10.25;9.10;;;;;;;13.12;77.15;101825.77;1742433;79;20866;-78
2021/09/22 09:25:42;;;;;;;;;;;;;;;13.18;77.19;101823.59;1749885;79;20932;-78
2021/09/22 09:28:28;;;;;;;10.15;9.08;;;;;;;13.27;77.10;101826.56;1748239;79;20141;-78
2021/09/22 09:31:08;;;;;;;10.72;9.63;;;;;;;13.31;77.16;101820.47;1754317;79;20916;-78
2021/09/22 09:33:52;;;;;;;10.40;9.45;;;;;;;13.35;77.09;101831.27;1749146;80;20920;-78
2021/09/22 09:36:43;;;;;;;9.53;8.55;;;;;;;13.37;77.01;101831.68;1760178;80;20887;-77
2021/09/22 09:39:08;;;;;;;;;;;;;;;13.40;76.97;101832.09;1749828;80;20938;-77
2021/09/22 09:41:49;;;;;;;9.13;8.23;;;;;;;13.45;76.93;101829.88;1745026;80;20446;-77
2021/09/22 09:44:18;;;;;;;10.32;8.23;;;;;;;13.53;77.08;101831.95;1749109;80;20927;-77
2021/09/22 09:46:46;;;;;;;12.93;8.75;;;;;;;13.56;76.98;101831.06;1746782;80;20913;-77
2021/09/22 09:49:16;;;;;;;9.40;8.53;;;;;;;13.61;77.02;101831.88;1753598;79;20901;-77
2021/09/22 09:51:53;;;;;;;9.33;8.30;;;;;;;13.68;77.04;101830.09;1744373;80;21356;-77
2021/09/22 09:54:24;;;;;;;8.48;7.70;;;;;;;13.74;77.02;101822.23;1747544;79;20946;-78
2021/09/22 09:56:54;;;;;;;9.50;8.53;;;;;;;13.82;76.93;101824.32;1744667;79;20916;-78
2021/09/22 09:59:23;;;;;;;11.57;9.03;;;;;;;13.89;76.98;101820.78;1750085;80;21396;-78
2021/09/22 10:01:54;;;;;;;12.25;8.95;;;;;;;13.99;76.96;101814.61;1744761;80;20944;-77
2021/09/22 10:04:24;;;;;;;8.33;7.53;;;;;;;14.09;76.94;101820.54;1745414;79;20932;-77
2021/09/22 10:06:52;;;;;;;9.75;8.03;;;;;;;14.15;76.84;101817.43;1745918;80;21426;-77
2021/09/22 10:09:22;;;;;;;8.55;7.75;;;;;;;14.20;76.79;101818.24;1747159;80;20881;-78
2021/09/22 10:11:48;;;;;;;8.48;7.70;;;;;;;14.22;76.65;101815.63;1746754;79;21338;-78
2021/09/22 10:14:17;;;;;;;10.32;7.37;;;;;;;14.23;76.58;101813.44;1745532;80;28075;-78
2021/09/22 10:16:44;;;;;;;8.83;6.90;;;;;;;14.23;76.54;101809.54;1745249;79;20885;-78
2021/09/22 10:19:11;;;;;;;9.60;7.00;;;;;;;14.30;76.63;101807.28;1742536;80;20908;-78
2021/09/22 10:21:38;;;;;;;8.55;7.30;;;;;;;14.39;76.66;101808.91;1747781;80;21005;-78
2021/09/22 10:24:12;;;;;;;7.40;6.42;;;;;;;14.50;76.72;101807.07;1748098;80;20936;-78
2021/09/22 10:26:38;;;;;;;6.75;6.05;;;;;;;14.59;76.59;101809.52;1742993;80;21055;-78
2021/09/22 10:29:27;;;;;;;5.83;5.22;;;;;;;14.65;76.36;101808.14;1756424;80;27618;-78
2021/09/22 10:31:58;;;;;;;6.92;5.42;;;;;;;14.63;76.24;101809.90;1747391;80;20992;-78
2021/09/22 10:34:32;;;;;;;6.50;5.90;;;;;;;14.64;76.20;101805.55;1744060;80;20919;-78
2021/09/22 10:37:00;;;;;;;6.30;5.67;;;;;;;14.68;76.18;101798.98;1741849;80;21418;-78
2021/09/22 10:39:40;;;;;;;6.97;6.30;;;;;;;14.75;76.16;101803.66;1746095;80;20896;-78
2021/09/22 10:42:29;;;;;;;6.85;6.15;;;;;;;14.79;76.11;101800.14;1745964;80;21555;-78
2021/09/22 10:45:22;;;;;;;7.10;6.25;;;;;;;14.86;76.01;101793.95;1734203;80;20949;-78
2021/09/22 10:47:50;;;;;;;6.12;5.20;;;;;;;14.83;75.96;101793.56;1746563;80;21388;-78
2021/09/22 10:50:47;;;;;;;6.40;5.80;;;;;;;14.86;75.90;101793.95;1740456;80;20912;-78
2021/09/22 10:53:34;;;;;;;6.72;4.90;;;;;;;14.82;75.71;101792.28;1744902;80;21516;-78
2021/09/22 10:56:22;;;;;;;3.95;3.55;;;;;;;14.84;75.80;101792.67;1743908;80;20973;-78
2021/09/22 10:58:55;;;;;;;5.83;5.25;;;;;;;14.82;75.46;101794.44;1727890;80;21504;-78
2021/09/22 11:01:45;;;;;;;8.40;4.85;;;;;;;14.79;75.48;101794.48;1746632;80;20932;-78
2021/09/22 11:04:14;;;;;;;4.85;4.35;;;;;;;14.78;75.41;101790.60;1743265;80;21019;-78
2021/09/22 11:06:48;;;;;;;4.37;3.98;;;;;;;14.76;75.30;101797.58;1745234;80;20982;-77
2021/09/22 11:09:27;;;;;;;11.25;6.83;;;;;;;14.77;75.28;101798.00;1747344;80;21096;-77
2021/09/22 11:12:03;;;;;;;4.30;3.80;;;;;;;14.79;75.26;101798.83;1738092;80;21537;-77
2021/09/22 11:14:48;;;;;;;4.03;3.73;;;;;;;14.84;75.26;101797.02;1745193;80;20946;-77
2021/09/22 11:17:32;;;;;;;4.33;3.92;;;;;;;14.90;75.14;101787.38;1752177;80;21375;-77
2021/09/22 11:20:03;;;;;;;4.90;3.52;;;;;;;14.97;75.01;101788.59;1738355;80;21380;-77
2021/09/22 11:22:34;;;;;;;3.95;3.55;;;;;;;15.04;75.04;101778.05;1745076;80;21387;-77
2021/09/22 11:25:03;;;;;;;4.95;3.95;;;;;;;15.13;74.90;101780.48;1750031;80;21333;-77
2021/09/22 11:27:31;;;;;;;4.30;3.90;;;;;;;15.18;74.79;101779.10;1733910;80;20935;-77
2021/09/22 11:30:04;;;;;;;3.62;3.30;;;;;;;15.21;74.75;101782.96;1742343;80;21603;-77